Wetterdaten: Woche 16.11.20 - 22.11.20 (KW47)
Datum Zeit Temp. Aussen Temp. o. S. Temp +5cm Feuchte Auss Luftdruck Regen Sonnenschein Regendauer Solar Windben Empfang
16.11.2020 00:00 10,1 C 9,4 C 8,4 C 82 % 1005,4 hPa 0,0 l/m 0,00 h 0,00 h 0 W/m 18,5 km/h (3 Bft) 96,75 %
16.11.2020 01:00 9,8 C 9,0 C 8,0 C 84 % 1005,8 hPa 0,0 l/m 0,00 h 0,00 h 0 W/m 13,7 km/h (3 Bft) 98,79 %
16.11.2020 02:00 9,8 C 9,3 C 8,4 C 85 % 1006,1 hPa 0,0 l/m 0,00 h 0,00 h 0 W/m 14,1 km/h (3 Bft) 97,58 %
16.11.2020 03:00 10,2 C 9,5 C 8,8 C 85 % 1006,9 hPa 0,0 l/m 0,00 h 0,00 h 0 W/m 32,3 km/h (5 Bft) 95,82 %
16.11.2020 04:00 9,8 C 9,0 C 8,2 C 86 % 1007,9 hPa 0,0 l/m 0,00 h 0,00 h 0 W/m 31,3 km/h (5 Bft) 99,65 %
16.11.2020 05:00 9,6 C 9,2 C 8,2 C 87 % 1008,7 hPa 0,0 l/m 0,00 h 0,00 h 0 W/m 23,7 km/h (4 Bft) 98,93 %
16.11.2020 06:00 10,1 C 9,4 C 8,7 C 87 % 1009,3 hPa 0,0 l/m 0,00 h 0,00 h 0 W/m 26,0 km/h (4 Bft) 94,22 %
16.11.2020 07:00 10,3 C 8,9 C 8,2 C 89 % 1010,2 hPa 0,2 l/m 0,00 h 0,40 h 0 W/m 24,3 km/h (4 Bft) 99,72 %
16.11.2020 08:00 10,1 C 9,4 C 8,5 C 91 % 1011,1 hPa 0,0 l/m 0,00 h 0,00 h 16 W/m 25,3 km/h (4 Bft) 98,31 %
16.11.2020 09:00 10,4 C 10,1 C 9,1 C 90 % 1011,9 hPa 0,0 l/m 0,00 h 0,00 h 30 W/m 28,5 km/h (4 Bft) 96,44 %
16.11.2020 10:00 11,0 C 10,6 C 10,0 C 88 % 1012,8 hPa 0,0 l/m 0,00 h 0,00 h 67 W/m 33,4 km/h (5 Bft) 96,83 %
16.11.2020 11:00 11,3 C 11,0 C 10,4 C 90 % 1013,7 hPa 0,0 l/m 0,03 h 0,00 h 85 W/m 27,8 km/h (4 Bft) 97,57 %
16.11.2020 12:00 11,7 C 11,0 C 10,4 C 90 % 1014,4 hPa 0,0 l/m 0,00 h 0,00 h 52 W/m 23,5 km/h (4 Bft) 97,63 %
16.11.2020 13:00 11,9 C 10,8 C 10,1 C 91 % 1014,8 hPa 0,2 l/m 0,00 h 0,37 h 41 W/m 16,0 km/h (3 Bft) 97,62 %
16.11.2020 14:00 11,6 C 11,2 C 10,0 C 94 % 1015,5 hPa 0,2 l/m 0,37 h 0,00 h 115 W/m 15,3 km/h (3 Bft) 96,74 %
16.11.2020 15:00 11,9 C 10,8 C 10,0 C 90 % 1016,4 hPa 0,0 l/m 0,03 h 0,00 h 28 W/m 16,1 km/h (3 Bft) 98,03 %
16.11.2020 16:00 11,8 C 10,6 C 9,9 C 89 % 1017,3 hPa 0,0 l/m 0,00 h 0,10 h 5 W/m 14,6 km/h (3 Bft) 98,60 %
16.11.2020 17:00 10,8 C 9,6 C 8,9 C 92 % 1018,2 hPa 0,0 l/m 0,00 h 0,00 h 0 W/m 14,8 km/h (3 Bft) 95,40 %
16.11.2020 18:00 10,5 C 9,6 C 9,0 C 92 % 1019,1 hPa 0,0 l/m 0,00 h 0,23 h 0 W/m 17,6 km/h (3 Bft) 98,81 %
16.11.2020 19:00 10,1 C 9,3 C 8,7 C 91 % 1019,8 hPa 0,0 l/m 0,00 h 0,00 h 0 W/m 13,8 km/h (3 Bft) 97,80 %
16.11.2020 20:00 9,5 C 8,9 C 8,4 C 92 % 1020,3 hPa 0,0 l/m 0,00 h 0,00 h 0 W/m 12,6 km/h (3 Bft) 95,75 %
16.11.2020 21:00 9,4 C 8,9 C 8,4 C 92 % 1020,7 hPa 0,0 l/m 0,00 h 0,00 h 0 W/m 8,2 km/h (2 Bft) 97,86 %
16.11.2020 22:00 9,5 C 9,0 C 8,5 C 93 % 1021,4 hPa 0,0 l/m 0,00 h 0,00 h 0 W/m 18,3 km/h (3 Bft) 98,59 %
16.11.2020 23:00 9,8 C 9,4 C 8,9 C 93 % 1021,7 hPa 0,0 l/m 0,00 h 0,00 h 0 W/m 16,2 km/h (3 Bft) 96,91 %
17.11.2020 00:00 10,0 C 9,4 C 8,9 C 93 % 1021,9 hPa 0,0 l/m 0,00 h 0,00 h 0 W/m 30,5 km/h (5 Bft) 98,04 %
17.11.2020 01:00 10,3 C 9,9 C 9,5 C 92 % 1021,9 hPa 0,0 l/m 0,00 h 0,00 h 0 W/m 29,7 km/h (5 Bft) 95,01 %
17.11.2020 02:00 10,4 C 10,0 C 9,5 C 94 % 1021,9 hPa 0,0 l/m 0,00 h 0,00 h 0 W/m 17,2 km/h (3 Bft) 97,64 %
17.11.2020 03:00 10,5 C 10,0 C 9,5 C 93 % 1021,6 hPa 0,0 l/m 0,00 h 0,00 h 0 W/m 24,0 km/h (4 Bft) 99,50 %
17.11.2020 04:00 10,8 C 10,1 C 9,5 C 91 % 1021,5 hPa 0,0 l/m 0,00 h 0,17 h 0 W/m 22,5 km/h (4 Bft) 96,06 %
17.11.2020 05:00 10,7 C 9,9 C 9,4 C 92 % 1021,8 hPa 0,0 l/m 0,00 h 0,17 h 0 W/m 30,8 km/h (5 Bft) 95,70 %
17.11.2020 06:00 10,8 C 10,3 C 9,7 C 92 % 1022,1 hPa 0,0 l/m 0,00 h 0,00 h 0 W/m 33,2 km/h (5 Bft) 98,75 %
17.11.2020 07:00 11,2 C 10,6 C 10,0 C 92 % 1022,5 hPa 0,0 l/m 0,00 h 0,00 h 0 W/m 30,1 km/h (5 Bft) 97,85 %
17.11.2020 08:00 11,4 C 10,9 C 10,2 C 92 % 1023,1 hPa 0,0 l/m 0,00 h 0,00 h 11 W/m 28,1 km/h (4 Bft) 95,81 %
17.11.2020 09:00 11,8 C 11,4 C 10,6 C 91 % 1023,7 hPa 0,0 l/m 0,00 h 0,00 h 33 W/m 26,1 km/h (4 Bft) 98,01 %
17.11.2020 10:00 12,1 C 11,7 C 11,0 C 91 % 1024,0 hPa 0,0 l/m 0,00 h 0,00 h 58 W/m 24,4 km/h (4 Bft) 97,83 %
17.11.2020 11:00 12,5 C 12,1 C 11,2 C 90 % 1024,6 hPa 0,0 l/m 0,00 h 0,00 h 58 W/m 29,0 km/h (5 Bft) 96,44 %
17.11.2020 12:00 12,4 C 12,0 C 11,1 C 89 % 1024,7 hPa 0,0 l/m 0,00 h 0,00 h 44 W/m 25,5 km/h (4 Bft) 96,83 %
17.11.2020 13:00 12,5 C 12,2 C 11,1 C 88 % 1024,8 hPa 0,0 l/m 0,00 h 0,00 h 29 W/m 21,9 km/h (4 Bft) 99,72 %
17.11.2020 14:00 12,5 C 11,9 C 11,1 C 88 % 1025,0 hPa 0,0 l/m 0,00 h 0,00 h 32 W/m 19,3 km/h (3 Bft) 96,67 %
17.11.2020 15:00 12,3 C 11,7 C 10,7 C 88 % 1025,3 hPa 0,0 l/m 0,00 h 0,00 h 14 W/m 23,6 km/h (4 Bft) 96,64 %
17.11.2020 16:00 12,4 C 11,7 C 10,8 C 87 % 1025,4 hPa 0,0 l/m 0,00 h 0,00 h 10 W/m 19,2 km/h (3 Bft) 99,68 %
17.11.2020 17:00 12,3 C 11,7 C 10,6 C 86 % 1025,8 hPa 0,0 l/m 0,00 h 0,00 h 0 W/m 23,5 km/h (4 Bft) 96,34 %
17.11.2020 18:00 12,0 C 11,3 C 10,4 C 87 % 1025,9 hPa 0,0 l/m 0,00 h 0,00 h 0 W/m 24,2 km/h (4 Bft) 97,77 %
17.11.2020 19:00 11,7 C 11,1 C 10,0 C 89 % 1026,3 hPa 0,0 l/m 0,00 h 0,00 h 0 W/m 17,5 km/h (3 Bft) 98,32 %
17.11.2020 20:00 11,5 C 11,1 C 10,0 C 90 % 1026,6 hPa 0,0 l/m 0,00 h 0,00 h 0 W/m 16,7 km/h (3 Bft) 95,99 %
17.11.2020 21:00 11,4 C 10,6 C 10,0 C 90 % 1026,6 hPa 0,0 l/m 0,00 h 0,00 h 0 W/m 14,1 km/h (3 Bft) 99,05 %
17.11.2020 22:00 11,4 C 10,6 C 10,0 C 91 % 1026,7 hPa 0,0 l/m 0,00 h 0,00 h 0 W/m 7,5 km/h (2 Bft) 96,65 %
17.11.2020 23:00 11,3 C 10,6 C 10,0 C 91 % 1026,7 hPa 0,0 l/m 0,00 h 0,00 h 0 W/m 7,4 km/h (2 Bft) 96,58 %
18.11.2020 00:00 11,2 C 10,6 C 10,0 C 91 % 1026,4 hPa 0,0 l/m 0,00 h 0,00 h 0 W/m 6,5 km/h (2 Bft) 99,48 %
18.11.2020 01:00 11,1 C 10,6 C 10,0 C 91 % 1026,3 hPa 0,0 l/m 0,00 h 0,00 h 0 W/m 7,2 km/h (2 Bft) 96,07 %
18.11.2020 02:00 11,1 C 10,6 C 10,0 C 90 % 1026,2 hPa 0,0 l/m 0,00 h 0,00 h 0 W/m 10,4 km/h (2 Bft) 95,56 %
18.11.2020 03:00 11,2 C 10,6 C 10,0 C 90 % 1025,9 hPa 0,0 l/m 0,00 h 0,00 h 0 W/m 12,8 km/h (3 Bft) 99,71 %
18.11.2020 04:00 11,2 C 10,6 C 10,0 C 90 % 1025,5 hPa 0,0 l/m 0,00 h 0,00 h 0 W/m 11,3 km/h (2 Bft) 97,63 %
18.11.2020 05:00 11,1 C 10,6 C 10,0 C 89 % 1025,3 hPa 0,0 l/m 0,00 h 0,00 h 0 W/m 12,1 km/h (2 Bft) 96,27 %
18.11.2020 06:00 11,1 C 10,6 C 9,7 C 88 % 1025,1 hPa 0,0 l/m 0,00 h 0,00 h 0 W/m 15,8 km/h (3 Bft) 98,32 %
18.11.2020 07:00 10,8 C 10,0 C 9,1 C 87 % 1024,9 hPa 0,0 l/m 0,00 h 0,00 h 0 W/m 5,1 km/h (1 Bft) 98,21 %
18.11.2020 08:00 10,1 C 8,6 C 7,4 C 88 % 1024,6 hPa 0,0 l/m 0,00 h 0,00 h 11 W/m 0,0 km/h (0 Bft) 96,52 %
18.11.2020 09:00 9,7 C 9,4 C 8,4 C 91 % 1024,3 hPa 0,0 l/m 0,00 h 0,00 h 20 W/m 4,1 km/h (1 Bft) 96,61 %
18.11.2020 10:00 10,9 C 11,0 C 9,9 C 90 % 1024,0 hPa 0,0 l/m 0,00 h 0,00 h 25 W/m 11,8 km/h (2 Bft) 95,97 %
18.11.2020 11:00 12,7 C 16,6 C 13,0 C 86 % 1023,6 hPa 0,0 l/m 0,90 h 0,00 h 308 W/m 17,1 km/h (3 Bft) 97,11 %
18.11.2020 12:00 14,3 C 18,4 C 19,1 C 81 % 1022,8 hPa 0,0 l/m 1,00 h 0,00 h 355 W/m 17,0 km/h (3 Bft) 96,32 %
18.11.2020 13:00 15,3 C 19,1 C 19,7 C 78 % 1021,7 hPa 0,0 l/m 1,00 h 0,00 h 337 W/m 16,6 km/h (3 Bft) 99,80 %
18.11.2020 14:00 16,0 C 18,9 C 16,4 C 76 % 1020,7 hPa 0,0 l/m 1,00 h 0,00 h 253 W/m 14,7 km/h (3 Bft) 96,77 %
18.11.2020 15:00 16,0 C 17,5 C 13,5 C 77 % 1019,8 hPa 0,0 l/m 1,00 h 0,00 h 119 W/m 9,9 km/h (2 Bft) 97,65 %
18.11.2020 16:00 14,9 C 13,7 C 12,0 C 78 % 1019,1 hPa 0,0 l/m 0,00 h 0,00 h 12 W/m 10,9 km/h (2 Bft) 98,37 %
18.11.2020 17:00 13,7 C 12,7 C 11,1 C 79 % 1018,7 hPa 0,0 l/m 0,00 h 0,00 h 0 W/m 14,0 km/h (3 Bft) 96,72 %
18.11.2020 18:00 12,7 C 11,8 C 10,2 C 78 % 1018,1 hPa 0,0 l/m 0,00 h 0,00 h 0 W/m 12,9 km/h (3 Bft) 97,34 %
18.11.2020 19:00 12,3 C 11,7 C 10,0 C 77 % 1017,6 hPa 0,0 l/m 0,00 h 0,00 h 0 W/m 17,8 km/h (3 Bft) 98,66 %
18.11.2020 20:00 11,9 C 11,1 C 9,6 C 78 % 1017,1 hPa 0,0 l/m 0,00 h 0,00 h 0 W/m 16,4 km/h (3 Bft) 98,21 %
18.11.2020 21:00 11,4 C 10,3 C 9,0 C 81 % 1017,1 hPa 0,0 l/m 0,00 h 0,00 h 0 W/m 8,9 km/h (2 Bft) 96,30 %
18.11.2020 22:00 11,1 C 10,7 C 9,4 C 83 % 1017,1 hPa 0,0 l/m 0,00 h 0,00 h 0 W/m 11,2 km/h (2 Bft) 98,03 %
18.11.2020 23:00 13,4 C 13,5 C 11,8 C 78 % 1017,0 hPa 0,0 l/m 0,00 h 0,00 h 0 W/m 34,0 km/h (5 Bft) 98,13 %
19.11.2020 00:00 14,3 C 13,7 C 12,2 C 77 % 1016,6 hPa 0,0 l/m 0,00 h 0,00 h 0 W/m 36,3 km/h (5 Bft) 97,64 %
19.11.2020 01:00 14,2 C 13,3 C 12,2 C 81 % 1016,5 hPa 0,0 l/m 0,00 h 0,00 h 0 W/m 37,2 km/h (5 Bft) 95,37 %
19.11.2020 02:00 13,7 C 12,0 C 10,8 C 86 % 1016,6 hPa 0,2 l/m 0,00 h 0,50 h 0 W/m 29,1 km/h (5 Bft) 98,13 %
19.11.2020 03:00 11,1 C 10,3 C 8,9 C 85 % 1017,4 hPa 0,0 l/m 0,00 h 0,23 h 0 W/m 20,1 km/h (4 Bft) 99,07 %
19.11.2020 04:00 10,7 C 9,6 C 8,0 C 75 % 1017,8 hPa 0,0 l/m 0,00 h 0,70 h 0 W/m 25,9 km/h (4 Bft) 96,25 %
19.11.2020 05:00 9,9 C 9,2 C 7,7 C 78 % 1018,3 hPa 0,0 l/m 0,00 h 0,30 h 0 W/m 19,3 km/h (3 Bft) 97,01 %
19.11.2020 06:00 9,7 C 9,0 C 7,5 C 79 % 1018,6 hPa 0,0 l/m 0,00 h 0,00 h 0 W/m 23,6 km/h (4 Bft) 98,79 %
19.11.2020 07:00 9,0 C 8,3 C 6,9 C 81 % 1018,9 hPa 0,0 l/m 0,00 h 0,00 h 0 W/m 21,7 km/h (4 Bft) 97,93 %
19.11.2020 08:00 8,9 C 8,3 C 7,1 C 83 % 1019,1 hPa 0,0 l/m 0,00 h 0,00 h 13 W/m 27,3 km/h (4 Bft) 96,00 %
19.11.2020 09:00 9,3 C 8,8 C 7,7 C 83 % 1019,2 hPa 0,0 l/m 0,00 h 0,00 h 40 W/m 31,6 km/h (5 Bft) 95,95 %
19.11.2020 10:00 9,8 C 9,4 C 8,4 C 83 % 1019,7 hPa 0,0 l/m 0,00 h 0,00 h 72 W/m 26,2 km/h (4 Bft) 98,44 %
19.11.2020 11:00 9,7 C 8,5 C 7,5 C 87 % 1020,6 hPa 0,2 l/m 0,00 h 0,23 h 75 W/m 21,3 km/h (4 Bft) 95,70 %
19.11.2020 12:00 9,9 C 9,2 C 8,2 C 86 % 1021,0 hPa 0,0 l/m 0,00 h 0,10 h 45 W/m 23,5 km/h (4 Bft) 96,41 %
19.11.2020 13:00 9,9 C 8,9 C 7,9 C 87 % 1021,4 hPa 0,0 l/m 0,00 h 0,27 h 50 W/m 19,6 km/h (3 Bft) 98,26 %
19.11.2020 14:00 9,9 C 9,4 C 8,3 C 87 % 1021,8 hPa 0,4 l/m 0,00 h 0,17 h 56 W/m 23,6 km/h (4 Bft) 98,67 %
19.11.2020 15:00 9,2 C 8,3 C 7,0 C 91 % 1023,1 hPa 0,2 l/m 0,00 h 0,03 h 30 W/m 18,1 km/h (3 Bft) 95,94 %
19.11.2020 16:00 8,5 C 7,5 C 6,7 C 92 % 1024,6 hPa 0,6 l/m 0,00 h 0,33 h 14 W/m 16,2 km/h (3 Bft) 95,93 %
19.11.2020 17:00 8,0 C 6,7 C 6,4 C 95 % 1026,0 hPa 0,0 l/m 0,00 h 0,00 h 0 W/m 8,9 km/h (2 Bft) 98,80 %
19.11.2020 18:00 7,2 C 6,2 C 5,9 C 95 % 1027,6 hPa 0,0 l/m 0,00 h 0,00 h 0 W/m 7,6 km/h (2 Bft) 97,64 %
19.11.2020 19:00 6,8 C 5,7 C 5,2 C 95 % 1028,2 hPa 0,0 l/m 0,00 h 0,00 h 0 W/m 1,5 km/h (1 Bft) 97,80 %
19.11.2020 20:00 5,9 C 4,7 C 4,3 C 94 % 1029,0 hPa 0,0 l/m 0,00 h 0,00 h 0 W/m 1,2 km/h (1 Bft) 97,41 %
19.11.2020 21:00 5,0 C 4,0 C 3,8 C 93 % 1030,0 hPa 0,0 l/m 0,00 h 0,00 h 0 W/m 1,9 km/h (1 Bft) 94,77 %
19.11.2020 22:00 4,4 C 3,6 C 3,3 C 94 % 1031,0 hPa 0,0 l/m 0,00 h 0,00 h 0 W/m 1,8 km/h (1 Bft) 98,95 %
19.11.2020 23:00 4,5 C 4,3 C 3,8 C 95 % 1031,8 hPa 0,0 l/m 0,00 h 0,00 h 0 W/m 2,9 km/h (1 Bft) 99,08 %
20.11.2020 00:00 4,8 C 4,4 C 3,9 C 94 % 1032,5 hPa 0,0 l/m 0,00 h 0,00 h 0 W/m 3,1 km/h (1 Bft) 96,48 %
20.11.2020 01:00 4,7 C 3,9 C 3,4 C 93 % 1032,7 hPa 0,0 l/m 0,00 h 0,00 h 0 W/m 1,1 km/h (0 Bft) 99,14 %
20.11.2020 02:00 4,3 C 3,4 C 3,2 C 93 % 1032,5 hPa 0,0 l/m 0,00 h 0,00 h 0 W/m 0,5 km/h (0 Bft) 96,01 %
20.11.2020 03:00 4,0 C 3,5 C 3,3 C 94 % 1032,7 hPa 0,0 l/m 0,00 h 0,00 h 0 W/m 1,4 km/h (1 Bft) 95,54 %
20.11.2020 04:00 4,3 C 4,0 C 3,7 C 95 % 1032,7 hPa 0,0 l/m 0,00 h 0,00 h 0 W/m 1,7 km/h (1 Bft) 99,18 %
20.11.2020 05:00 4,3 C 3,5 C 3,1 C 94 % 1032,8 hPa 0,0 l/m 0,00 h 0,00 h 0 W/m 1,5 km/h (1 Bft) 96,87 %
20.11.2020 06:00 4,0 C 3,4 C 3,2 C 94 % 1033,1 hPa 0,0 l/m 0,00 h 0,00 h 0 W/m 2,1 km/h (1 Bft) 97,33 %
20.11.2020 07:00 4,2 C 3,9 C 3,7 C 96 % 1033,5 hPa 0,0 l/m 0,00 h 0,00 h 0 W/m 2,4 km/h (1 Bft) 94,06 %
20.11.2020 08:00 4,5 C 4,3 C 3,9 C 95 % 1034,2 hPa 0,0 l/m 0,00 h 0,00 h 10 W/m 2,3 km/h (1 Bft) 98,89 %
20.11.2020 09:00 4,9 C 4,8 C 4,6 C 95 % 1034,4 hPa 0,0 l/m 0,00 h 0,00 h 43 W/m 5,3 km/h (1 Bft) 96,48 %
20.11.2020 10:00 5,4 C 5,6 C 5,3 C 94 % 1035,2 hPa 0,0 l/m 0,00 h 0,00 h 82 W/m 10,0 km/h (2 Bft) 96,97 %
20.11.2020 11:00 6,2 C 6,4 C 5,8 C 92 % 1035,7 hPa 0,0 l/m 0,00 h 0,00 h 85 W/m 9,4 km/h (2 Bft) 95,96 %
20.11.2020 12:00 6,7 C 7,6 C 6,6 C 89 % 1035,6 hPa 0,0 l/m 0,13 h 0,00 h 130 W/m 7,9 km/h (2 Bft) 97,95 %
20.11.2020 13:00 8,2 C 12,6 C 11,3 C 82 % 1035,3 hPa 0,0 l/m 1,00 h 0,00 h 329 W/m 10,1 km/h (2 Bft) 94,41 %
20.11.2020 14:00 8,9 C 11,3 C 9,1 C 78 % 1035,0 hPa 0,0 l/m 1,00 h 0,00 h 234 W/m 16,5 km/h (3 Bft) 97,03 %
20.11.2020 15:00 8,4 C 8,9 C 6,1 C 79 % 1034,9 hPa 0,0 l/m 0,90 h 0,00 h 97 W/m 12,8 km/h (3 Bft) 99,04 %
20.11.2020 16:00 7,4 C 6,1 C 4,7 C 81 % 1035,1 hPa 0,0 l/m 0,00 h 0,00 h 11 W/m 7,0 km/h (2 Bft) 92,52 %
20.11.2020 17:00 6,1 C 5,1 C 3,7 C 83 % 1035,4 hPa 0,0 l/m 0,00 h 0,00 h 0 W/m 3,4 km/h (1 Bft) 97,64 %
20.11.2020 18:00 5,3 C 4,2 C 3,0 C 84 % 1035,4 hPa 0,0 l/m 0,00 h 0,00 h 0 W/m 3,5 km/h (1 Bft) 99,12 %
20.11.2020 19:00 4,6 C 3,6 C 2,5 C 87 % 1035,4 hPa 0,0 l/m 0,00 h 0,00 h 0 W/m 4,9 km/h (1 Bft) 96,53 %
20.11.2020 20:00 3,9 C 3,0 C 2,0 C 88 % 1035,5 hPa 0,0 l/m 0,00 h 0,00 h 0 W/m 4,3 km/h (1 Bft) 97,54 %
20.11.2020 21:00 3,4 C 2,8 C 1,7 C 89 % 1035,5 hPa 0,0 l/m 0,00 h 0,00 h 0 W/m 5,3 km/h (1 Bft) 95,99 %
20.11.2020 22:00 2,9 C 2,2 C 1,3 C 89 % 1035,2 hPa 0,0 l/m 0,00 h 0,00 h 0 W/m 9,8 km/h (2 Bft) 97,74 %
20.11.2020 23:00 2,5 C 2,0 C 1,1 C 89 % 1035,1 hPa 0,0 l/m 0,00 h 0,00 h 0 W/m 11,6 km/h (2 Bft) 98,73 %
21.11.2020 00:00 2,3 C 1,7 C 0,8 C 89 % 1034,7 hPa 0,0 l/m 0,00 h 0,00 h 0 W/m 10,3 km/h (2 Bft) 97,50 %
21.11.2020 01:00 2,0 C 1,4 C 0,6 C 90 % 1034,0 hPa 0,0 l/m 0,00 h 0,00 h 0 W/m 11,0 km/h (2 Bft) 95,65 %
21.11.2020 02:00 1,9 C 1,3 C 0,6 C 91 % 1033,7 hPa 0,0 l/m 0,00 h 0,00 h 0 W/m 6,6 km/h (2 Bft) 97,36 %
21.11.2020 03:00 1,9 C 1,3 C 0,6 C 91 % 1032,9 hPa 0,0 l/m 0,00 h 0,00 h 0 W/m 8,3 km/h (2 Bft) 99,00 %
21.11.2020 04:00 1,9 C 1,4 C 0,8 C 91 % 1032,5 hPa 0,0 l/m 0,00 h 0,00 h 0 W/m 6,2 km/h (2 Bft) 96,78 %
21.11.2020 05:00 2,2 C 1,9 C 1,3 C 92 % 1032,5 hPa 0,0 l/m 0,00 h 0,00 h 0 W/m 7,5 km/h (2 Bft) 96,87 %
21.11.2020 06:00 2,8 C 2,6 C 2,0 C 92 % 1032,2 hPa 0,0 l/m 0,00 h 0,00 h 0 W/m 12,9 km/h (3 Bft) 96,21 %
21.11.2020 07:00 3,5 C 3,3 C 2,7 C 91 % 1031,8 hPa 0,0 l/m 0,00 h 0,00 h 0 W/m 14,1 km/h (3 Bft) 98,01 %
21.11.2020 08:00 4,0 C 3,7 C 3,1 C 90 % 1031,7 hPa 0,0 l/m 0,00 h 0,00 h 15 W/m 15,2 km/h (3 Bft) 99,26 %
21.11.2020 09:00 4,5 C 4,3 C 3,7 C 90 % 1031,4 hPa 0,0 l/m 0,00 h 0,00 h 28 W/m 11,3 km/h (2 Bft) 94,86 %
21.11.2020 10:00 5,8 C 6,0 C 5,2 C 89 % 1030,9 hPa 0,0 l/m 0,00 h 0,00 h 44 W/m 18,4 km/h (3 Bft) 98,06 %
21.11.2020 11:00 7,4 C 7,4 C 6,7 C 85 % 1030,6 hPa 0,0 l/m 0,00 h 0,00 h 83 W/m 17,9 km/h (3 Bft) 99,14 %
21.11.2020 12:00 8,7 C 8,9 C 8,1 C 82 % 1030,0 hPa 0,0 l/m 0,20 h 0,00 h 139 W/m 25,5 km/h (4 Bft) 96,18 %
21.11.2020 13:00 9,7 C 10,4 C 9,6 C 78 % 1029,4 hPa 0,0 l/m 1,00 h 0,00 h 204 W/m 29,1 km/h (5 Bft) 97,70 %
21.11.2020 14:00 10,2 C 10,1 C 9,2 C 78 % 1029,0 hPa 0,0 l/m 0,23 h 0,00 h 106 W/m 34,3 km/h (5 Bft) 98,09 %
21.11.2020 15:00 9,9 C 9,3 C 7,9 C 80 % 1028,7 hPa 0,0 l/m 0,00 h 0,00 h 26 W/m 30,5 km/h (5 Bft) 97,79 %
21.11.2020 16:00 9,5 C 8,9 C 7,6 C 81 % 1028,7 hPa 0,0 l/m 0,00 h 0,00 h 6 W/m 26,3 km/h (4 Bft) 95,65 %
21.11.2020 17:00 9,4 C 8,9 C 7,2 C 81 % 1028,8 hPa 0,0 l/m 0,00 h 0,00 h 0 W/m 22,7 km/h (4 Bft) 97,01 %
21.11.2020 18:00 9,3 C 8,5 C 7,2 C 82 % 1028,6 hPa 0,0 l/m 0,00 h 0,00 h 0 W/m 24,2 km/h (4 Bft) 97,57 %
21.11.2020 19:00 9,2 C 8,3 C 7,2 C 83 % 1028,5 hPa 0,0 l/m 0,00 h 0,00 h 0 W/m 19,8 km/h (4 Bft) 98,85 %
21.11.2020 20:00 8,9 C 8,3 C 7,2 C 84 % 1028,3 hPa 0,0 l/m 0,00 h 0,00 h 0 W/m 17,6 km/h (3 Bft) 96,01 %
21.11.2020 21:00 8,9 C 8,3 C 7,2 C 85 % 1028,1 hPa 0,0 l/m 0,00 h 0,00 h 0 W/m 21,0 km/h (4 Bft) 97,72 %
21.11.2020 22:00 8,9 C 8,3 C 7,2 C 86 % 1027,8 hPa 0,0 l/m 0,00 h 0,00 h 0 W/m 23,5 km/h (4 Bft) 98,57 %
21.11.2020 23:00 8,9 C 8,3 C 7,2 C 86 % 1027,3 hPa 0,0 l/m 0,00 h 0,00 h 0 W/m 17,9 km/h (3 Bft) 97,22 %
22.11.2020 00:00 8,9 C 8,2 C 7,2 C 86 % 1027,0 hPa 0,0 l/m 0,00 h 0,00 h 0 W/m 28,2 km/h (4 Bft) 97,08 %
22.11.2020 01:00 8,7 C 8,0 C 7,2 C 88 % 1026,6 hPa 0,0 l/m 0,00 h 0,00 h 0 W/m 29,7 km/h (5 Bft) 98,29 %
22.11.2020 02:00 8,5 C 7,8 C 7,0 C 89 % 1026,4 hPa 0,0 l/m 0,00 h 0,00 h 0 W/m 28,7 km/h (4 Bft) 96,53 %
22.11.2020 03:00 8,4 C 7,7 C 7,0 C 91 % 1026,1 hPa 0,0 l/m 0,00 h 0,00 h 0 W/m 28,2 km/h (4 Bft) 97,62 %
22.11.2020 04:00 8,5 C 7,8 C 7,2 C 91 % 1026,1 hPa 0,0 l/m 0,00 h 0,00 h 0 W/m 26,9 km/h (4 Bft) 96,64 %
22.11.2020 05:00 8,6 C 7,8 C 7,2 C 92 % 1026,0 hPa 0,0 l/m 0,00 h 0,00 h 0 W/m 27,9 km/h (4 Bft) 98,07 %
22.11.2020 06:00 8,6 C 7,8 C 7,2 C 93 % 1026,0 hPa 0,0 l/m 0,00 h 0,00 h 0 W/m 27,0 km/h (4 Bft) 98,81 %
22.11.2020 07:00 8,5 C 7,8 C 7,5 C 95 % 1026,0 hPa 0,0 l/m 0,00 h 0,00 h 0 W/m 24,8 km/h (4 Bft) 96,48 %
22.11.2020 08:00 8,5 C 7,3 C 7,2 C 96 % 1026,1 hPa 0,0 l/m 0,00 h 0,17 h 16 W/m 23,6 km/h (4 Bft) 96,40 %
22.11.2020 09:00 8,5 C 7,6 C 7,4 C 97 % 1026,2 hPa 0,0 l/m 0,00 h 0,07 h 37 W/m 23,7 km/h (4 Bft) 98,93 %
22.11.2020 10:00 8,7 C 8,0 C 8,0 C 98 % 1026,4 hPa 0,0 l/m 0,00 h 0,00 h 51 W/m 20,9 km/h (4 Bft) 98,43 %
22.11.2020 11:00 9,1 C 8,6 C 8,4 C 98 % 1026,3 hPa 0,0 l/m 0,00 h 0,00 h 63 W/m 19,2 km/h (3 Bft) 97,97 %
22.11.2020 12:00 9,4 C 8,6 C 8,4 C 96 % 1026,2 hPa 0,0 l/m 0,00 h 0,00 h 43 W/m 17,5 km/h (3 Bft) 96,68 %
22.11.2020 13:00 9,3 C 8,7 C 8,4 C 97 % 1026,0 hPa 0,0 l/m 0,00 h 0,00 h 43 W/m 13,8 km/h (3 Bft) 97,44 %
22.11.2020 14:00 9,3 C 8,5 C 8,4 C 97 % 1025,7 hPa 0,0 l/m 0,00 h 0,00 h 27 W/m 10,9 km/h (2 Bft) 97,95 %
22.11.2020 15:00 9,3 C 8,6 C 8,4 C 98 % 1025,7 hPa 0,0 l/m 0,00 h 0,00 h 10 W/m 7,1 km/h (2 Bft) 97,22 %
22.11.2020 16:00 9,2 C 8,3 C 8,0 C 98 % 1025,7 hPa 0,0 l/m 0,00 h 0,03 h 5 W/m 3,0 km/h (1 Bft) 98,42 %
22.11.2020 17:00 9,1 C 8,3 C 8,0 C 98 % 1025,7 hPa 0,2 l/m 0,00 h 0,03 h 0 W/m 3,4 km/h (1 Bft) 96,08 %
22.11.2020 18:00 9,1 C 8,3 C 8,4 C 99 % 1025,8 hPa 0,0 l/m 0,00 h 0,00 h 0 W/m 7,9 km/h (2 Bft) 96,25 %
22.11.2020 19:00 9,0 C 8,3 C 8,4 C 99 % 1026,1 hPa 0,2 l/m 0,00 h 0,10 h 0 W/m 1,4 km/h (1 Bft) 98,53 %
22.11.2020 20:00 9,0 C 8,3 C 8,3 C 99 % 1026,2 hPa 0,2 l/m 0,00 h 0,27 h 0 W/m 0,9 km/h (0 Bft) 96,52 %
22.11.2020 21:00 8,8 C 8,0 C 7,9 C 99 % 1026,2 hPa 0,0 l/m 0,00 h 0,00 h 0 W/m 0,3 km/h (0 Bft) 96,96 %
22.11.2020 22:00 8,8 C 8,2 C 8,3 C 100 % 1026,3 hPa 0,0 l/m 0,00 h 0,00 h 0 W/m 0,1 km/h (0 Bft) 97,67 %
22.11.2020 23:00 8,6 C 7,5 C 7,6 C 100 % 1026,4 hPa 0,4 l/m 0,00 h 0,33 h 0 W/m 1,1 km/h (0 Bft) 96,65 %
Min-Datum _ 21.11.20 21.11.20 21.11.20 19.11.20 16.11.20 - - - - 16.11.20 20.11.20
_ Min-Zeit 03:12 01:26 00:26 04:32 00:02 - - - - 00:54 16:28
Minimum _ 1,8 C 1,1 C 0,6 C 71 % 1004,9 hPa - - - - 0,0 km/h (0 Bft) 22,50 %
Max-Datum _ 18.11.20 18.11.20 18.11.20 22.11.20 20.11.20 19.11.20 18.11.20 22.11.20 20.11.20 19.11.20 16.11.20
_ Max-Zeit 14:36 13:18 13:56 20:42 11:26 16:34 12:08 19:32 13:08 02:44 01:18
Maximum _ 16,1 C 20,0 C 21,1 C 100 % 1035,8 hPa 0,6 l/m 0,07 h 0,07 h 377 W/m 67,6 km/h
S-SO (8 Bft)
100,00 %
Durchschnitt _ 9,1 C 8,6 C 7,8 C 89 % 1024,8 hPa #3,2 l/m #9:48 h #5:18 h 72 W/m 16,2 km/h (3 Bft) 97,35 %
© 2020 W. Hausmann